Time;durP1;ratioP1;P1;durP2;ratioP2;P2;SDS_P1;SDS_P2;PMS_P1;PMS_P2;Temp;Humidity;BMP_temperature;BMP_pressure;BME280_temperature;BME280_humidity;BME280_pressure;Samples;Min_cycle;Max_cycle;Signal;HPM_P1;HPM_P2
2023/10/18 00:01:30;;;;;;;4.90;4.40;;;10.30;88.00;;;;;;5075146;28;20461;-57
2023/10/18 00:03:57;;;;;;;5.37;4.23;;;10.30;88.00;;;;;;5075071;28;20816;-57
2023/10/18 00:06:24;;;;;;;8.10;5.13;;;10.30;88.00;;;;;;5075024;28;20451;-57
2023/10/18 00:08:57;;;;;;;5.53;4.73;;;10.30;88.10;;;;;;5074804;28;20475;-57
2023/10/18 00:11:24;;;;;;;6.00;4.50;;;10.30;88.50;;;;;;5074568;28;20859;-57
2023/10/18 00:13:53;;;;;;;7.90;4.40;;;10.30;88.60;;;;;;5074885;28;20469;-57
2023/10/18 00:16:21;;;;;;;5.10;4.33;;;10.30;88.90;;;;;;5074899;28;20817;-57
2023/10/18 00:18:47;;;;;;;4.90;4.43;;;10.30;88.80;;;;;;5074724;28;20455;-57
2023/10/18 00:21:14;;;;;;;5.87;5.00;;;10.20;88.90;;;;;;5074677;28;20484;-57
2023/10/18 00:23:44;;;;;;;7.80;4.97;;;10.30;88.90;;;;;;5073939;28;20815;-57
2023/10/18 00:26:11;;;;;;;4.60;4.13;;;10.20;88.80;;;;;;5074579;28;20452;-57
2023/10/18 00:28:38;;;;;;;4.27;3.87;;;10.20;88.70;;;;;;5074250;28;20896;-57
2023/10/18 00:31:18;;;;;;;6.13;4.73;;;10.20;88.70;;;;;;5074459;28;20464;-57
2023/10/18 00:33:45;;;;;;;6.60;4.07;;;10.20;88.60;;;;;;5074432;28;20459;-57
2023/10/18 00:36:12;;;;;;;5.53;3.70;;;10.20;88.70;;;;;;5074895;28;20444;-57
2023/10/18 00:38:40;;;;;;;5.00;4.50;;;10.20;88.50;;;;;;5074333;28;20539;-57
2023/10/18 00:41:09;;;;;;;4.43;4.00;;;10.20;88.60;;;;;;5073794;28;20998;-57
2023/10/18 00:43:36;;;;;;;4.30;3.90;;;10.20;88.60;;;;;;5074349;28;20447;-57
2023/10/18 00:46:06;;;;;;;5.03;4.53;;;10.20;88.50;;;;;;5074230;28;20589;-57
2023/10/18 00:48:34;;;;;;;5.47;4.30;;;10.20;88.50;;;;;;5074238;28;20453;-57
2023/10/18 00:51:02;;;;;;;6.90;4.10;;;10.20;88.40;;;;;;5073784;28;20978;-57
2023/10/18 00:53:31;;;;;;;4.90;3.93;;;10.20;88.50;;;;;;5073989;28;20445;-57
2023/10/18 00:56:00;;;;;;;8.87;4.50;;;10.20;88.60;;;;;;5074050;28;20946;-57
2023/10/18 00:58:28;;;;;;;8.50;5.10;;;10.20;88.70;;;;;;5073919;28;20866;-57
2023/10/18 01:00:57;;;;;;;8.23;4.27;;;10.20;88.80;;;;;;5073786;28;20484;-57
2023/10/18 01:03:30;;;;;;;5.10;4.13;;;10.20;88.70;;;;;;5073928;28;20472;-57
2023/10/18 01:06:04;;;;;;;6.13;4.80;;;10.20;88.70;;;;;;5073980;28;20433;-57
2023/10/18 01:08:32;;;;;;;5.53;4.60;;;10.20;89.20;;;;;;5073428;28;20907;-58
2023/10/18 01:11:04;;;;;;;4.80;4.00;;;10.20;89.00;;;;;;5073752;28;20529;-57
2023/10/18 01:13:31;;;;;;;4.97;4.00;;;10.20;88.30;;;;;;5073820;28;20465;-57
2023/10/18 01:15:59;;;;;;;7.67;4.80;;;10.20;88.60;;;;;;5074415;28;20470;-57
2023/10/18 01:18:26;;;;;;;7.63;4.53;;;10.20;88.60;;;;;;5073505;28;20449;-58
2023/10/18 01:20:53;;;;;;;5.20;4.17;;;10.20;88.70;;;;;;5073586;28;20491;-57
2023/10/18 01:23:21;;;;;;;7.27;5.30;;;10.20;88.50;;;;;;5073630;28;20448;-57
2023/10/18 01:25:49;;;;;;;6.37;4.73;;;10.20;88.40;;;;;;5073530;28;20437;-57
2023/10/18 01:28:16;;;;;;;5.87;4.37;;;10.10;88.40;;;;;;5073207;28;20988;-57
2023/10/18 01:30:43;;;;;;;5.80;3.90;;;10.10;88.50;;;;;;5073426;28;20514;-57
2023/10/18 01:33:13;;;;;;;5.77;3.50;;;10.10;88.30;;;;;;5073477;28;20484;-57
2023/10/18 01:35:46;;;;;;;3.97;3.33;;;10.10;88.20;;;;;;5073452;28;20444;-57
2023/10/18 01:38:13;;;;;;;6.40;4.47;;;10.10;88.30;;;;;;5073542;28;20431;-57
2023/10/18 01:40:52;;;;;;;5.60;4.17;;;10.10;88.20;;;;;;5073278;28;20514;-58
2023/10/18 01:43:19;;;;;;;4.10;3.77;;;10.10;88.30;;;;;;5073612;28;20425;-57
2023/10/18 01:45:48;;;;;;;3.67;3.37;;;10.10;88.40;;;;;;5073595;28;20502;-57
2023/10/18 01:48:18;;;;;;;5.13;4.00;;;10.10;88.30;;;;;;5073604;28;20451;-57
2023/10/18 01:50:44;;;;;;;4.20;3.80;;;10.10;88.30;;;;;;5073181;28;20514;-57
2023/10/18 01:53:16;;;;;;;5.50;3.57;;;10.10;88.20;;;;;;5073331;28;20475;-57
2023/10/18 01:55:46;;;;;;;3.57;3.27;;;10.00;88.20;;;;;;5073338;28;20425;-57
2023/10/18 01:58:14;;;;;;;4.40;3.50;;;10.00;88.20;;;;;;5073185;28;20451;-57
2023/10/18 02:00:44;;;;;;;5.10;4.47;;;10.00;88.20;;;;;;5073216;28;20492;-57
2023/10/18 02:03:13;;;;;;;3.63;3.33;;;10.00;88.30;;;;;;5073255;28;20540;-57
2023/10/18 02:05:43;;;;;;;4.10;3.70;;;10.00;88.20;;;;;;5073125;28;20444;-57
2023/10/18 02:08:11;;;;;;;4.17;3.77;;;10.00;88.30;;;;;;5074179;28;20789;-57
2023/10/18 02:10:40;;;;;;;5.63;4.50;;;10.00;88.20;;;;;;5072696;28;20472;-57
2023/10/18 02:13:08;;;;;;;4.20;3.83;;;9.90;89.40;;;;;;5072763;28;20950;-57
2023/10/18 02:15:39;;;;;;;5.30;3.67;;;9.90;89.50;;;;;;5072764;28;21022;-57
2023/10/18 02:18:06;;;;;;;5.10;3.67;;;9.90;89.70;;;;;;5073178;28;20432;-57
2023/10/18 02:20:34;;;;;;;6.13;4.10;;;9.90;89.60;;;;;;5072918;28;20520;-57
2023/10/18 02:23:10;;;;;;;4.07;3.67;;;9.90;89.60;;;;;;5073016;28;20445;-57
2023/10/18 02:25:42;;;;;;;4.87;3.80;;;9.90;89.50;;;;;;5072713;28;20808;-58
2023/10/18 02:28:22;;;;;;;4.93;3.27;;;9.90;89.60;;;;;;5072934;28;20436;-58
2023/10/18 02:30:56;;;;;;;4.63;3.67;;;9.90;89.50;;;;;;5072840;28;20456;-57
2023/10/18 02:33:26;;;;;;;3.90;3.03;;;9.90;90.10;;;;;;5072949;28;20425;-57
2023/10/18 02:35:57;;;;;;;4.10;3.40;;;9.90;89.50;;;;;;5072874;28;20532;-57
2023/10/18 02:38:24;;;;;;;4.00;3.40;;;9.90;89.30;;;;;;5072658;28;21020;-57
2023/10/18 02:40:51;;;;;;;5.53;3.53;;;9.90;89.30;;;;;;5072665;28;20485;-57
2023/10/18 02:43:18;;;;;;;3.50;3.20;;;9.80;89.00;;;;;;5072424;28;20964;-57
2023/10/18 02:45:51;;;;;;;4.67;3.80;;;9.80;89.10;;;;;;5073523;28;20519;-57
2023/10/18 02:48:22;;;;;;;3.63;3.33;;;9.80;89.20;;;;;;5076552;28;20426;-57
2023/10/18 02:50:50;;;;;;;4.80;4.20;;;9.90;89.40;;;;;;5076627;28;20484;-57
2023/10/18 02:53:17;;;;;;;4.23;3.83;;;9.80;89.50;;;;;;5076483;28;20527;-57
2023/10/18 02:55:50;;;;;;;6.10;3.77;;;9.80;89.40;;;;;;5076377;28;20851;-57
2023/10/18 02:58:21;;;;;;;3.77;3.47;;;9.80;89.40;;;;;;5076416;28;20550;-57
2023/10/18 03:00:49;;;;;;;5.63;3.23;;;9.80;90.10;;;;;;5076182;28;20492;-57
2023/10/18 03:03:21;;;;;;;5.90;3.80;;;9.80;89.30;;;;;;5076179;28;20451;-57
2023/10/18 03:05:48;;;;;;;6.60;3.37;;;9.80;89.30;;;;;;5075921;28;20499;-57
2023/10/18 03:08:20;;;;;;;5.20;4.40;;;9.80;89.30;;;;;;5076152;28;20448;-58
2023/10/18 03:10:48;;;;;;;4.70;4.30;;;9.80;89.40;;;;;;5075732;28;20464;-57
2023/10/18 03:13:17;;;;;;;4.43;3.50;;;9.80;89.40;;;;;;5075779;28;20942;-57
2023/10/18 03:16:04;;;;;;;5.80;3.60;;;9.80;89.30;;;;;;5076021;28;20531;-57
2023/10/18 03:18:36;;;;;;;4.93;3.77;;;9.80;89.20;;;;;;5076479;28;20472;-57
2023/10/18 03:21:06;;;;;;;4.30;3.77;;;9.80;89.30;;;;;;5075780;28;20569;-57
2023/10/18 03:23:33;;;;;;;5.53;4.20;;;9.80;89.40;;;;;;5075868;28;20488;-57
2023/10/18 03:26:01;;;;;;;4.17;3.77;;;9.80;89.70;;;;;;5075917;28;20437;-58
2023/10/18 03:28:34;;;;;;;4.63;4.23;;;9.80;89.60;;;;;;5075783;28;20451;-58
2023/10/18 03:31:04;;;;;;;4.33;3.53;;;9.80;89.70;;;;;;5075383;28;20824;-57
2023/10/18 03:33:33;;;;;;;4.00;3.60;;;9.80;89.70;;;;;;5075730;28;20430;-58
2023/10/18 03:36:17;;;;;;;3.73;3.43;;;9.80;89.70;;;;;;5075627;28;20441;-58
2023/10/18 03:38:51;;;;;;;4.90;3.83;;;9.80;89.80;;;;;;5075294;28;20425;-57
2023/10/18 03:41:19;;;;;;;5.03;3.63;;;9.70;89.60;;;;;;5075277;28;20484;-57
2023/10/18 03:43:48;;;;;;;4.33;3.93;;;9.80;89.60;;;;;;5075412;28;20453;-57
2023/10/18 03:46:18;;;;;;;5.00;3.57;;;9.70;89.40;;;;;;5075138;28;20444;-57
2023/10/18 03:48:52;;;;;;;5.43;3.47;;;9.70;89.30;;;;;;5075438;28;20425;-57
2023/10/18 03:51:20;;;;;;;3.70;3.40;;;9.70;89.40;;;;;;5085244;28;21238;-56
2023/10/18 03:53:51;;;;;;;3.93;3.40;;;9.70;89.40;;;;;;5087477;28;20451;-57
2023/10/18 03:56:19;;;;;;;3.57;3.27;;;9.70;89.50;;;;;;5095558;28;20436;-57
2023/10/18 03:58:53;;;;;;;5.00;3.30;;;9.70;89.50;;;;;;5094028;28;20929;-57
2023/10/18 04:01:22;;;;;;;4.00;3.53;;;9.70;90.10;;;;;;5088853;28;20476;-57
2023/10/18 04:03:50;;;;;;;7.40;3.83;;;9.70;89.70;;;;;;5074358;28;20456;-57
2023/10/18 04:06:28;;;;;;;5.40;3.83;;;9.70;89.60;;;;;;5075060;28;20447;-57
2023/10/18 04:08:58;;;;;;;4.73;3.73;;;9.70;89.30;;;;;;5074721;28;20464;-57
2023/10/18 04:11:26;;;;;;;4.63;3.30;;;9.70;89.40;;;;;;5074045;28;20461;-57
2023/10/18 04:13:53;;;;;;;3.93;3.63;;;9.70;89.50;;;;;;5073951;28;20464;-57
2023/10/18 04:16:26;;;;;;;5.00;4.10;;;9.70;89.30;;;;;;5074836;28;20444;-57
2023/10/18 04:18:56;;;;;;;8.57;3.40;;;9.70;89.30;;;;;;5074867;28;20482;-57
2023/10/18 04:21:26;;;;;;;4.03;3.60;;;9.70;89.40;;;;;;5074354;28;21096;-57
2023/10/18 04:23:56;;;;;;;6.10;3.27;;;9.70;89.30;;;;;;5073682;28;20457;-57
2023/10/18 04:26:25;;;;;;;4.43;3.93;;;9.60;89.20;;;;;;5074566;28;20448;-57
2023/10/18 04:28:57;;;;;;;5.63;3.10;;;9.60;89.20;;;;;;5074581;28;20452;-57
2023/10/18 04:31:24;;;;;;;6.20;3.60;;;9.60;89.00;;;;;;5074522;28;20456;-57
2023/10/18 04:33:52;;;;;;;5.30;3.77;;;9.60;89.10;;;;;;5073620;28;20460;-57
2023/10/18 04:36:21;;;;;;;7.50;3.70;;;9.60;89.10;;;;;;5073099;28;21067;-57
2023/10/18 04:38:49;;;;;;;3.70;3.07;;;9.60;89.00;;;;;;5090264;28;20492;-57
2023/10/18 04:41:26;;;;;;;4.50;4.10;;;9.60;89.30;;;;;;5095256;28;20494;-57
2023/10/18 04:43:59;;;;;;;5.07;3.33;;;9.60;89.40;;;;;;5094597;28;20803;-57
2023/10/18 04:46:27;;;;;;;5.93;3.87;;;9.60;89.30;;;;;;5092560;28;20448;-57
2023/10/18 04:51:48;;;;;;;4.53;4.07;;;9.60;89.40;;;;;;5094156;28;20559;-57
2023/10/18 04:54:18;;;;;;;3.83;3.43;;;9.60;89.50;;;;;;5094108;28;20822;-58
2023/10/18 04:56:46;;;;;;;4.47;3.77;;;9.60;89.70;;;;;;5094365;28;20874;-58
2023/10/18 04:59:29;;;;;;;5.50;4.23;;;9.60;89.70;;;;;;5092658;28;20467;-57
2023/10/18 05:01:58;;;;;;;5.53;4.20;;;9.60;89.60;;;;;;5076508;28;20484;-57
2023/10/18 05:04:29;;;;;;;4.67;3.77;;;9.60;89.70;;;;;;5073764;28;20939;-57
2023/10/18 05:06:59;;;;;;;5.50;4.40;;;9.60;89.70;;;;;;5073656;28;20930;-57
2023/10/18 05:09:34;;;;;;;4.80;3.53;;;9.60;89.70;;;;;;5072275;28;21019;-57
2023/10/18 05:12:07;;;;;;;4.50;4.10;;;9.60;89.70;;;;;;5073513;28;20476;-57
2023/10/18 05:14:36;;;;;;;4.83;4.00;;;9.60;89.90;;;;;;5081983;28;20461;-56
2023/10/18 05:17:10;;;;;;;4.67;3.77;;;9.60;89.90;;;;;;5073785;28;20448;-57
2023/10/18 05:19:41;;;;;;;5.73;3.60;;;9.60;90.00;;;;;;5078540;28;21046;-57
2023/10/18 05:22:09;;;;;;;9.17;3.70;;;9.60;89.80;;;;;;5093856;28;20464;-57
2023/10/18 05:24:38;;;;;;;5.77;4.13;;;9.60;89.70;;;;;;5093650;28;20447;-57
2023/10/18 05:27:19;;;;;;;4.90;4.27;;;9.60;89.70;;;;;;5093773;28;20501;-57
2023/10/18 05:29:52;;;;;;;6.90;4.80;;;9.60;89.60;;;;;;5091598;28;21024;-57
2023/10/18 05:32:37;;;;;;;5.07;4.00;;;9.60;89.70;;;;;;5093359;28;20525;-57
2023/10/18 05:35:19;;;;;;;5.73;4.00;;;9.60;89.70;;;;;;5093707;28;20443;-57
2023/10/18 05:37:59;;;;;;;5.00;4.47;;;9.60;89.70;;;;;;5093704;28;20430;-57
2023/10/18 05:43:22;;;;;;;4.90;4.40;;;9.60;89.70;;;;;;5073193;28;20389;-57
2023/10/18 05:45:48;;;;;;;10.03;4.07;;;9.60;89.70;;;;;;5073438;28;20521;-57
2023/10/18 05:48:17;;;;;;;4.80;4.30;;;9.60;89.70;;;;;;5073050;28;20443;-57
2023/10/18 05:50:49;;;;;;;7.03;4.30;;;9.60;89.70;;;;;;5073338;28;20488;-58
2023/10/18 05:53:19;;;;;;;4.70;4.00;;;9.60;89.60;;;;;;5073280;28;20436;-58
2023/10/18 05:55:52;;;;;;;4.87;4.27;;;9.60;89.60;;;;;;5073377;28;20479;-57
2023/10/18 05:58:25;;;;;;;7.10;4.90;;;9.70;89.70;;;;;;5073254;28;20448;-57
2023/10/18 06:00:52;;;;;;;6.17;4.13;;;9.70;89.50;;;;;;5073056;28;20452;-57
2023/10/18 06:03:22;;;;;;;5.43;3.60;;;9.70;89.40;;;;;;5073224;28;20467;-57
2023/10/18 06:05:51;;;;;;;5.13;4.63;;;9.60;89.40;;;;;;5073175;28;20479;-57
2023/10/18 06:08:22;;;;;;;6.13;4.60;;;9.60;89.30;;;;;;5073178;28;20448;-57
2023/10/18 06:10:49;;;;;;;4.80;4.40;;;9.60;89.20;;;;;;5072638;28;21010;-58
2023/10/18 06:13:21;;;;;;;3.93;3.53;;;9.60;89.20;;;;;;5073040;28;20490;-57
2023/10/18 06:15:50;;;;;;;4.87;4.17;;;9.60;89.30;;;;;;5073163;28;20421;-57
2023/10/18 06:18:18;;;;;;;5.67;5.00;;;9.60;89.30;;;;;;5073114;28;20480;-57
2023/10/18 06:20:45;;;;;;;5.43;4.27;;;9.60;89.40;;;;;;5073643;28;20480;-57
2023/10/18 06:23:36;;;;;;;5.17;4.73;;;9.60;89.50;;;;;;5076930;28;20525;-57
2023/10/18 06:26:27;;;;;;;6.60;4.37;;;9.70;89.50;;;;;;5076834;28;20511;-57
2023/10/18 06:29:00;;;;;;;6.80;5.20;;;9.70;89.50;;;;;;5076946;28;20475;-58
2023/10/18 06:31:28;;;;;;;5.17;4.67;;;9.70;89.50;;;;;;5076850;28;20551;-57
2023/10/18 06:33:56;;;;;;;6.07;4.93;;;9.60;89.20;;;;;;5076868;28;20494;-58
2023/10/18 06:36:24;;;;;;;10.60;5.60;;;9.70;89.40;;;;;;5076781;28;20510;-58
2023/10/18 06:38:51;;;;;;;5.70;4.73;;;9.70;89.10;;;;;;5076696;28;20444;-57
2023/10/18 06:41:21;;;;;;;6.67;5.13;;;9.70;89.20;;;;;;5076561;28;20883;-57
2023/10/18 06:43:49;;;;;;;6.77;5.43;;;9.80;89.10;;;;;;5076560;28;20532;-57
2023/10/18 06:46:22;;;;;;;8.20;5.80;;;9.80;89.10;;;;;;5076639;28;20451;-57
2023/10/18 06:48:50;;;;;;;7.60;4.83;;;9.80;88.70;;;;;;5076579;28;20524;-57
2023/10/18 06:51:18;;;;;;;8.40;5.40;;;9.80;88.60;;;;;;5076162;28;20978;-57
2023/10/18 06:53:53;;;;;;;6.73;5.30;;;9.90;88.70;;;;;;5076449;28;20440;-57
2023/10/18 06:56:21;;;;;;;8.17;5.20;;;9.90;88.60;;;;;;5076423;28;20424;-57
2023/10/18 06:58:47;;;;;;;8.40;5.27;;;10.00;87.30;;;;;;5076005;28;20797;-58
2023/10/18 07:01:19;;;;;;;6.23;5.63;;;10.00;87.10;;;;;;5092946;28;20850;-58
2023/10/18 07:03:46;;;;;;;7.60;4.97;;;10.00;87.30;;;;;;5096627;28;20428;-57
2023/10/18 07:06:18;;;;;;;5.10;4.60;;;10.10;87.40;;;;;;5096177;28;20972;-57
2023/10/18 07:08:45;;;;;;;8.53;5.00;;;10.20;87.30;;;;;;5096276;28;20447;-58
2023/10/18 07:11:17;;;;;;;6.30;5.17;;;10.20;87.00;;;;;;5096346;28;20464;-57
2023/10/18 07:13:50;;;;;;;6.70;4.60;;;10.20;86.90;;;;;;5096821;28;20456;-57
2023/10/18 07:16:25;;;;;;;5.17;4.40;;;10.30;86.80;;;;;;5097305;28;20758;-58
2023/10/18 07:19:04;;;;;;;5.90;4.70;;;10.30;86.40;;;;;;5096320;28;20424;-57
2023/10/18 07:21:32;;;;;;;5.63;5.03;;;10.40;86.30;;;;;;5096115;28;20471;-58
2023/10/18 07:24:08;;;;;;;6.20;4.90;;;10.40;86.10;;;;;;5096019;28;20941;-58
2023/10/18 07:26:35;;;;;;;5.50;5.00;;;10.50;86.30;;;;;;5096256;28;20477;-57
2023/10/18 07:29:06;;;;;;;7.90;5.53;;;10.50;86.20;;;;;;5096168;28;20444;-58
2023/10/18 07:31:38;;;;;;;5.93;5.33;;;10.60;86.10;;;;;;5095895;28;20827;-57
2023/10/18 07:34:07;;;;;;;8.20;5.40;;;10.70;86.20;;;;;;5095993;28;20429;-58
2023/10/18 07:36:37;;;;;;;7.33;6.63;;;10.70;85.90;;;;;;5095742;28;20937;-58
2023/10/18 07:39:04;;;;;;;8.10;6.07;;;10.70;85.60;;;;;;5095989;28;20470;-58
2023/10/18 07:41:34;;;;;;;7.57;5.37;;;10.80;85.50;;;;;;5095474;28;20893;-58
2023/10/18 07:44:05;;;;;;;5.97;5.23;;;10.80;85.40;;;;;;5095817;28;20935;-58
2023/10/18 07:46:34;;;;;;;6.63;5.70;;;10.90;85.40;;;;;;5095854;28;20430;-58
2023/10/18 07:49:05;;;;;;;7.77;5.30;;;10.90;84.90;;;;;;5095871;28;20494;-58
2023/10/18 07:51:34;;;;;;;13.90;5.77;;;10.90;84.30;;;;;;5095863;28;20463;-58
2023/10/18 07:54:02;;;;;;;6.17;5.50;;;11.00;84.40;;;;;;5095694;28;20451;-58
2023/10/18 07:56:31;;;;;;;7.80;6.20;;;11.00;83.90;;;;;;5095566;28;20450;-58
2023/10/18 07:59:27;;;;;;;11.20;6.40;;;11.10;84.00;;;;;;5096025;28;20447;-58
2023/10/18 08:02:09;;;;;;;6.53;5.93;;;11.10;83.60;;;;;;5095326;28;20480;-58
2023/10/18 08:04:37;;;;;;;7.87;5.53;;;11.20;83.10;;;;;;5095370;28;20428;-58
2023/10/18 08:07:04;;;;;;;6.27;5.67;;;11.30;81.20;;;;;;5095330;28;20444;-57
2023/10/18 08:09:31;;;;;;;8.50;6.00;;;11.40;81.20;;;;;;5095060;28;20452;-57
2023/10/18 08:12:05;;;;;;;7.73;5.97;;;11.40;81.50;;;;;;5095382;28;20456;-57
2023/10/18 08:14:32;;;;;;;7.37;6.17;;;11.40;80.60;;;;;;5095291;28;20489;-58
2023/10/18 08:17:09;;;;;;;8.50;6.90;;;11.50;81.00;;;;;;5095148;28;20443;-58
2023/10/18 08:19:43;;;;;;;8.53;6.67;;;11.60;79.50;;;;;;5095113;28;20428;-58
2023/10/18 08:22:27;;;;;;;7.07;6.37;;;11.70;80.00;;;;;;5095226;28;20516;-57
2023/10/18 08:24:54;;;;;;;7.33;5.87;;;11.70;79.60;;;;;;5094983;28;20454;-57
2023/10/18 08:27:20;;;;;;;8.93;6.77;;;11.80;78.90;;;;;;5094615;28;20941;-58
2023/10/18 08:30:05;;;;;;;6.27;5.30;;;11.80;79.40;;;;;;5094810;28;20440;-58
2023/10/18 08:32:37;;;;;;;6.20;5.40;;;11.80;78.40;;;;;;5094914;28;20443;-58
2023/10/18 08:35:08;;;;;;;7.67;6.90;;;11.80;78.50;;;;;;5094771;28;20526;-58
2023/10/18 08:37:36;;;;;;;7.13;6.20;;;11.90;79.00;;;;;;5094795;28;20428;-58
2023/10/18 08:40:09;;;;;;;7.50;6.13;;;12.00;78.10;;;;;;5094573;28;20459;-58
2023/10/18 08:42:43;;;;;;;8.70;6.50;;;12.10;78.60;;;;;;5094617;28;20464;-58
2023/10/18 08:45:19;;;;;;;7.20;5.77;;;12.20;79.10;;;;;;5094012;28;20467;-58
2023/10/18 08:47:49;;;;;;;7.37;6.10;;;12.20;78.00;;;;;;5094649;28;20910;-58
2023/10/18 08:50:18;;;;;;;8.43;6.70;;;12.30;77.90;;;;;;5094401;28;20462;-58
2023/10/18 08:52:48;;;;;;;10.43;6.37;;;12.40;77.80;;;;;;5094484;28;20446;-58
2023/10/18 08:55:22;;;;;;;8.23;6.07;;;12.30;77.60;;;;;;5094895;28;20474;-58
2023/10/18 08:57:55;;;;;;;7.30;6.60;;;12.40;78.20;;;;;;5094073;28;20839;-58
2023/10/18 09:03:07;;;;;;;11.60;7.90;;;12.50;78.00;;;;;;5093710;28;20468;-58
2023/10/18 09:05:35;;;;;;;7.37;6.57;;;12.60;76.70;;;;;;5094350;28;20420;-58
2023/10/18 09:08:04;;;;;;;8.67;6.43;;;12.70;77.10;;;;;;5093912;28;21067;-58
2023/10/18 09:10:43;;;;;;;7.60;6.80;;;12.80;75.10;;;;;;5093767;28;20472;-58
2023/10/18 09:16:01;;;;;;;10.83;7.80;;;13.00;75.30;;;;;;5093882;28;20842;-58
2023/10/18 09:18:31;;;;;;;7.67;6.57;;;13.10;75.60;;;;;;5093718;28;20435;-58
2023/10/18 09:21:07;;;;;;;10.40;7.50;;;13.20;75.40;;;;;;5093903;28;20882;-58
2023/10/18 09:23:34;;;;;;;8.20;7.40;;;13.30;72.60;;;;;;5093546;28;20965;-58
2023/10/18 09:26:10;;;;;;;9.93;6.97;;;13.40;73.90;;;;;;5093875;28;20814;-58
2023/10/18 09:28:37;;;;;;;8.80;7.03;;;13.40;71.30;;;;;;5093906;28;20428;-58
2023/10/18 09:31:09;;;;;;;8.90;6.83;;;13.30;70.60;;;;;;5093701;28;20554;-58
2023/10/18 09:33:38;;;;;;;7.17;6.47;;;13.20;70.80;;;;;;5091352;28;20977;-57
2023/10/18 09:36:23;;;;;;;9.83;7.27;;;13.20;72.60;;;;;;5089939;28;20611;-57
2023/10/18 09:38:51;;;;;;;9.70;6.83;;;13.30;73.60;;;;;;5093667;28;20435;-58
2023/10/18 09:41:18;;;;;;;7.27;6.30;;;13.30;71.20;;;;;;5093600;28;20833;-58
2023/10/18 09:43:46;;;;;;;9.07;7.20;;;13.50;72.10;;;;;;5093488;28;20480;-58
2023/10/18 09:46:14;;;;;;;7.97;6.17;;;13.60;72.50;;;;;;5089632;28;20460;-57
2023/10/18 09:48:44;;;;;;;8.87;6.50;;;13.70;72.30;;;;;;5085777;28;20808;-57
2023/10/18 09:51:14;;;;;;;11.10;7.00;;;13.80;70.40;;;;;;5093109;28;20981;-58
2023/10/18 09:53:45;;;;;;;8.27;7.30;;;13.90;68.50;;;;;;5093553;28;20423;-58
2023/10/18 09:56:13;;;;;;;7.50;6.40;;;14.00;69.20;;;;;;5089216;28;20428;-57
2023/10/18 09:58:46;;;;;;;7.80;6.63;;;14.10;69.00;;;;;;5073079;28;20488;-58
2023/10/18 10:01:14;;;;;;;6.90;5.97;;;14.30;68.90;;;;;;5072869;28;20456;-58
2023/10/18 10:03:50;;;;;;;8.60;7.03;;;14.50;68.20;;;;;;5073149;28;20507;-58
2023/10/18 10:06:20;;;;;;;7.40;6.63;;;14.70;66.80;;;;;;5073220;28;20460;-58
2023/10/18 10:08:51;;;;;;;7.00;6.40;;;15.00;65.70;;;;;;5080014;28;20490;-58
2023/10/18 10:11:19;;;;;;;7.40;6.70;;;15.30;63.80;;;;;;5073080;28;20460;-58
2023/10/18 10:13:49;;;;;;;8.77;6.03;;;15.70;63.50;;;;;;5073131;28;20432;-58
2023/10/18 10:16:22;;;;;;;7.00;5.70;;;16.20;62.30;;;;;;5073348;28;20437;-58
2023/10/18 10:18:52;;;;;;;9.20;6.07;;;16.60;58.70;;;;;;5078866;28;20463;-57
2023/10/18 10:21:22;;;;;;;6.90;5.90;;;16.90;56.00;;;;;;5073150;28;20476;-57
2023/10/18 10:23:55;;;;;;;6.83;5.60;;;17.20;56.60;;;;;;5072344;28;20476;-57
2023/10/18 10:26:28;;;;;;;6.00;5.40;;;17.50;56.30;;;;;;5073072;28;20439;-58
2023/10/18 10:29:33;;;;;;;9.13;5.73;;;17.80;55.50;;;;;;5072659;28;20807;-58
2023/10/18 10:31:58;;;;;;;6.10;5.60;;;18.10;54.30;;;;;;5072964;28;20556;-58
2023/10/18 10:34:27;;;;;;;5.53;5.03;;;18.40;53.10;;;;;;5085977;28;20443;-57
2023/10/18 10:37:06;;;;;;;9.63;5.13;;;18.70;52.50;;;;;;5093174;28;20436;-58
2023/10/18 10:39:35;;;;;;;6.50;5.20;;;18.90;51.60;;;;;;5093116;28;20427;-58
2023/10/18 10:42:09;;;;;;;8.00;5.13;;;19.20;50.70;;;;;;5092999;28;20557;-58
2023/10/18 10:45:02;;;;;;;5.93;5.40;;;19.50;50.90;;;;;;5088352;28;20510;-57
2023/10/18 10:47:30;;;;;;;5.03;4.53;;;19.90;49.30;;;;;;5072886;28;20482;-56
2023/10/18 10:50:00;;;;;;;5.80;5.30;;;20.10;48.70;;;;;;5077309;28;20456;-56
2023/10/18 10:52:30;;;;;;;5.90;5.30;;;20.30;47.00;;;;;;5092953;28;20493;-56
2023/10/18 10:55:17;;;;;;;8.13;4.80;;;20.50;46.90;;;;;;5093083;28;20457;-56
2023/10/18 10:57:44;;;;;;;5.67;4.57;;;20.80;46.90;;;;;;5092894;28;20424;-56
2023/10/18 11:00:36;;;;;;;5.87;5.27;;;20.80;45.70;;;;;;5088474;28;20507;-55
2023/10/18 11:03:25;;;;;;;6.30;4.37;;;20.90;44.30;;;;;;5071873;28;20919;-56
2023/10/18 11:05:58;;;;;;;5.23;4.73;;;20.90;44.70;;;;;;5067972;28;20480;-56
2023/10/18 11:08:25;;;;;;;4.70;4.27;;;20.90;45.40;;;;;;5076071;28;20440;-56
2023/10/18 11:10:52;;;;;;;8.00;4.80;;;21.00;45.50;;;;;;5075830;28;20494;-56
2023/10/18 11:13:22;;;;;;;4.33;3.70;;;21.00;45.00;;;;;;5075999;28;20510;-55
2023/10/18 11:15:51;;;;;;;4.83;4.40;;;21.10;44.30;;;;;;5076185;28;20903;-56
2023/10/18 11:18:20;;;;;;;4.60;4.00;;;21.10;44.40;;;;;;5076091;28;20445;-56
2023/10/18 11:21:05;;;;;;;5.60;4.20;;;21.10;43.70;;;;;;5076041;28;20468;-56
2023/10/18 11:23:34;;;;;;;7.20;4.00;;;21.30;44.10;;;;;;5080598;28;20921;-56
2023/10/18 11:26:08;;;;;;;7.10;4.30;;;21.30;43.40;;;;;;5096282;28;20474;-56
2023/10/18 11:28:37;;;;;;;4.20;3.70;;;21.20;42.70;;;;;;5095853;28;20925;-56
2023/10/18 11:31:04;;;;;;;4.93;4.00;;;21.10;43.20;;;;;;5096039;28;20900;-56
2023/10/18 11:33:46;;;;;;;6.93;4.03;;;20.90;43.00;;;;;;5083897;28;20461;-55
2023/10/18 11:36:18;;;;;;;4.00;3.27;;;20.80;43.10;;;;;;5075973;28;20431;-56
2023/10/18 11:41:30;;;;;;;6.03;3.03;;;20.80;44.90;;;;;;5075172;28;20449;-56
2023/10/18 11:43:57;;;;;;;4.80;3.87;;;21.10;45.10;;;;;;5082990;28;21231;-56
2023/10/18 11:46:24;;;;;;;4.50;3.80;;;21.30;44.30;;;;;;5090020;28;20491;-55
2023/10/18 11:48:54;;;;;;;5.17;4.07;;;21.30;43.20;;;;;;5075470;28;20535;-56
2023/10/18 11:51:21;;;;;;;5.77;3.60;;;21.30;43.20;;;;;;5075501;28;20492;-56
2023/10/18 11:53:52;;;;;;;4.57;3.40;;;21.40;43.60;;;;;;5075423;28;20491;-56
2023/10/18 11:56:19;;;;;;;3.67;2.93;;;21.50;42.70;;;;;;5075442;28;20432;-56
2023/10/18 11:59:00;;;;;;;6.30;4.20;;;21.60;42.70;;;;;;5075364;28;20448;-56
2023/10/18 12:01:31;;;;;;;4.00;3.13;;;22.10;43.10;;;;;;5075414;28;20514;-56
2023/10/18 12:03:58;;;;;;;5.43;3.63;;;22.50;41.20;;;;;;5074811;28;20839;-56
2023/10/18 12:06:25;;;;;;;3.20;2.90;;;23.20;40.80;;;;;;5075212;28;20448;-56
2023/10/18 12:11:47;;;;;;;4.90;3.43;;;24.10;39.40;;;;;;5091540;27;20530;-57
2023/10/18 12:14:14;;;;;;;5.00;2.73;;;24.70;38.90;;;;;;5090801;28;20444;-58
2023/10/18 12:16:41;;;;;;;4.60;2.93;;;25.10;37.80;;;;;;5090929;28;20485;-58
2023/10/18 12:19:10;;;;;;;3.60;3.30;;;25.40;36.60;;;;;;5089979;28;20444;-57
2023/10/18 12:21:37;;;;;;;6.83;3.60;;;25.70;35.70;;;;;;5076981;28;21036;-57
2023/10/18 12:24:05;;;;;;;3.60;3.10;;;25.90;35.50;;;;;;5068833;28;20885;-57
2023/10/18 12:26:34;;;;;;;6.60;2.80;;;26.00;36.00;;;;;;5070515;28;20888;-58
2023/10/18 12:29:05;;;;;;;6.97;2.40;;;26.00;34.60;;;;;;5070579;28;20447;-58
2023/10/18 12:31:37;;;;;;;3.40;2.77;;;25.80;34.90;;;;;;5070325;28;20485;-58
2023/10/18 12:34:05;;;;;;;6.20;3.23;;;25.70;34.80;;;;;;5070527;28;20429;-57
2023/10/18 12:36:37;;;;;;;5.03;2.70;;;25.50;34.80;;;;;;5069557;28;20471;-57
2023/10/18 12:39:09;;;;;;;3.70;2.70;;;25.50;35.40;;;;;;5088680;28;20836;-57
2023/10/18 12:41:39;;;;;;;5.30;2.30;;;25.70;35.70;;;;;;5090310;28;20467;-57
2023/10/18 12:44:11;;;;;;;3.63;2.83;;;25.90;35.20;;;;;;5090026;28;20463;-57
2023/10/18 12:46:41;;;;;;;4.10;3.00;;;26.00;34.30;;;;;;5080437;28;20470;-57
2023/10/18 12:49:10;;;;;;;4.10;2.60;;;26.10;34.10;;;;;;5087912;28;20487;-57
2023/10/18 12:51:41;;;;;;;3.10;2.80;;;26.00;33.40;;;;;;5069770;28;20485;-57
2023/10/18 12:54:19;;;;;;;2.43;2.23;;;25.90;34.70;;;;;;5069978;28;20803;-58
2023/10/18 12:56:56;;;;;;;5.37;2.90;;;25.80;34.60;;;;;;5069850;28;20437;-57
2023/10/18 12:59:24;;;;;;;3.53;2.53;;;25.70;35.70;;;;;;5069692;28;20429;-57
2023/10/18 13:01:58;;;;;;;5.47;2.57;;;25.50;35.30;;;;;;5088177;28;20499;-57
2023/10/18 13:04:24;;;;;;;3.27;2.97;;;25.20;35.50;;;;;;5089962;28;20427;-57
2023/10/18 13:06:51;;;;;;;3.43;2.73;;;24.80;36.50;;;;;;5089921;28;20439;-57
2023/10/18 13:09:20;;;;;;;3.90;2.20;;;24.40;37.20;;;;;;5089860;28;20447;-57
2023/10/18 13:11:53;;;;;;;4.60;2.20;;;24.20;37.70;;;;;;5072071;28;20489;-57
2023/10/18 13:14:29;;;;;;;3.47;3.17;;;23.90;38.10;;;;;;5068672;28;20460;-57
2023/10/18 13:16:58;;;;;;;4.20;2.60;;;23.60;38.70;;;;;;5069124;28;20925;-57
2023/10/18 13:19:27;;;;;;;4.47;2.67;;;23.30;39.30;;;;;;5069285;28;20441;-57
2023/10/18 13:21:54;;;;;;;8.90;2.37;;;23.00;40.20;;;;;;5062770;28;20469;-57
2023/10/18 13:24:28;;;;;;;4.30;2.57;;;22.70;40.60;;;;;;5054873;28;21005;-57
2023/10/18 13:26:59;;;;;;;2.67;2.03;;;22.40;40.90;;;;;;5056132;28;20429;-57